createdAt,value
2023-03-16T00:09:20.622Z,100.00
2023-03-16T00:19:23.282Z,100.00
2023-03-16T00:29:25.771Z,100.00
2023-03-16T00:39:28.050Z,100.00
2023-03-16T00:49:35.040Z,100.00
2023-03-16T00:59:38.306Z,100.00
2023-03-16T01:09:42.599Z,100.00
2023-03-16T01:19:46.285Z,100.00
2023-03-16T01:29:48.682Z,100.00
2023-03-16T01:39:50.998Z,100.00
2023-03-16T01:49:56.784Z,100.00
2023-03-16T02:00:19.470Z,100.00
2023-03-16T02:10:22.047Z,100.00
2023-03-16T02:20:34.607Z,100.00
2023-03-16T02:30:37.333Z,100.00
2023-03-16T02:40:40.061Z,100.00
2023-03-16T02:50:47.779Z,100.00
2023-03-16T03:00:50.166Z,100.00
2023-03-16T03:10:52.449Z,100.00
2023-03-16T03:20:54.799Z,100.00
2023-03-16T03:30:57.452Z,100.00
2023-03-16T03:40:59.958Z,100.00
2023-03-16T03:51:03.338Z,100.00
2023-03-16T04:01:05.822Z,100.00
2023-03-16T04:11:08.379Z,100.00
2023-03-16T04:21:17.018Z,100.00
2023-03-16T04:31:19.360Z,100.00
2023-03-16T04:41:22.058Z,100.00
2023-03-16T04:51:25.840Z,100.00
2023-03-16T05:01:29.726Z,100.00
2023-03-16T05:11:32.448Z,100.00
2023-03-16T05:21:38.145Z,100.00
2023-03-16T05:31:40.780Z,100.00
2023-03-16T05:41:44.143Z,100.00
2023-03-16T05:51:46.660Z,100.00
2023-03-16T06:01:50.696Z,100.00
2023-03-16T06:11:53.080Z,100.00
2023-03-16T06:21:55.572Z,100.00
2023-03-16T06:31:58.399Z,100.00
2023-03-16T06:42:00.772Z,100.00
2023-03-16T06:52:03.720Z,100.00
2023-03-16T07:02:07.514Z,100.00
2023-03-16T07:12:10.783Z,100.00
2023-03-16T07:22:13.863Z,100.00
2023-03-16T07:32:16.786Z,100.00
2023-03-16T07:42:20.348Z,100.00
2023-03-16T07:52:22.944Z,100.00
2023-03-16T08:02:25.570Z,100.00
2023-03-16T08:12:28.469Z,100.00
2023-03-16T08:22:31.213Z,100.00
2023-03-16T08:32:34.507Z,100.00
2023-03-16T08:42:39.274Z,100.00
2023-03-16T08:52:42.116Z,100.00
2023-03-16T09:02:45.859Z,99.16
2023-03-16T09:12:48.420Z,91.98
2023-03-16T09:22:50.840Z,89.73
2023-03-16T09:32:53.587Z,83.68
2023-03-16T09:43:39.487Z,81.67
2023-03-16T09:53:43.225Z,79.41
2023-03-16T10:04:06.402Z,75.46
2023-03-16T10:14:24.361Z,69.15
2023-03-16T10:24:43.640Z,66.66
2023-03-16T10:35:01.001Z,62.28
2023-03-16T10:45:04.535Z,61.86
2023-03-16T10:55:29.368Z,62.30
2023-03-16T11:05:36.093Z,58.15
2023-03-16T11:15:47.895Z,58.77
2023-03-16T11:25:54.714Z,57.61
2023-03-16T11:36:28.655Z,53.15
2023-03-16T11:46:57.806Z,51.82
2023-03-16T11:57:07.426Z,53.24
2023-03-16T12:07:35.898Z,51.62
2023-03-16T12:17:39.646Z,47.06
2023-03-16T12:27:44.443Z,48.76
2023-03-16T12:38:16.438Z,46.58
2023-03-16T12:48:25.606Z,47.11
2023-03-16T12:58:28.504Z,44.89
2023-03-16T13:08:44.301Z,44.09
2023-03-16T13:18:47.140Z,43.49
2023-03-16T13:28:55.618Z,44.17
2023-03-16T13:39:05.578Z,44.26
2023-03-16T13:49:09.424Z,43.86
2023-03-16T13:59:16.103Z,41.91
2023-03-16T14:09:23.067Z,42.50
2023-03-16T14:19:36.877Z,41.70
2023-03-16T14:29:43.073Z,41.19
2023-03-16T14:39:58.506Z,39.23
2023-03-16T14:50:09.093Z,41.19
2023-03-16T15:00:15.796Z,40.94
2023-03-16T15:10:30.417Z,39.44
2023-03-16T15:20:41.750Z,40.38
2023-03-16T15:30:47.221Z,39.60
2023-03-16T15:40:51.966Z,39.75
2023-03-16T15:51:05.058Z,40.15
2023-03-16T16:01:09.531Z,39.71
2023-03-16T16:11:18.391Z,39.97
2023-03-16T16:21:24.736Z,39.58
2023-03-16T16:31:31.031Z,41.64
2023-03-16T16:41:36.401Z,42.09
2023-03-16T16:51:39.871Z,42.75
2023-03-16T17:01:42.672Z,43.77
2023-03-16T17:11:46.187Z,45.04
2023-03-16T17:21:49.625Z,45.30
2023-03-16T17:31:52.605Z,47.19
2023-03-16T17:41:58.032Z,48.60
2023-03-16T17:52:01.842Z,49.96
2023-03-16T18:02:22.452Z,52.63
2023-03-16T18:12:24.964Z,54.33
2023-03-16T18:22:28.297Z,56.40
2023-03-16T18:32:32.215Z,57.19
2023-03-16T18:42:34.688Z,60.14
2023-03-16T18:52:39.706Z,61.48
2023-03-16T19:02:44.311Z,62.79
2023-03-16T19:12:47.112Z,64.49
2023-03-16T19:22:54.663Z,65.33
2023-03-16T19:32:58.346Z,66.71
2023-03-16T19:43:01.000Z,67.20
2023-03-16T19:53:14.298Z,66.70
2023-03-16T20:03:17.181Z,66.15
2023-03-16T20:13:20.463Z,68.02
2023-03-16T20:23:28.586Z,72.91
2023-03-16T20:33:32.446Z,74.60
2023-03-16T20:43:36.986Z,72.79
2023-03-16T20:53:39.643Z,77.97
2023-03-16T21:03:42.609Z,82.48
2023-03-16T21:13:45.402Z,87.08
2023-03-16T21:23:48.230Z,91.38
2023-03-16T21:33:52.350Z,91.90
2023-03-16T21:43:55.236Z,94.18
2023-03-16T21:53:58.513Z,95.72
2023-03-16T22:04:06.956Z,95.10
2023-03-16T22:14:10.735Z,96.34
2023-03-16T22:24:39.998Z,94.82
2023-03-16T22:34:47.636Z,94.97
2023-03-16T22:44:50.189Z,93.96
2023-03-16T22:54:53.298Z,95.18
2023-03-16T23:04:56.456Z,95.28
2023-03-16T23:14:58.843Z,96.27
2023-03-16T23:25:01.416Z,96.48
2023-03-16T23:35:13.667Z,98.30
2023-03-16T23:45:15.918Z,100.00
2023-03-16T23:55:19.422Z,100.00
